createdAt,value
2018-09-14T00:00:36.493Z,2.20
2018-09-14T00:03:05.497Z,2.10
2018-09-14T00:05:33.361Z,2.20
2018-09-14T00:08:01.641Z,3.27
2018-09-14T00:10:29.665Z,2.40
2018-09-14T00:12:57.757Z,2.30
2018-09-14T00:15:25.741Z,2.47
2018-09-14T00:17:53.621Z,2.40
2018-09-14T00:20:21.482Z,2.70
2018-09-14T00:22:49.373Z,3.13
2018-09-14T00:25:17.245Z,2.33
2018-09-14T00:27:45.125Z,2.43
2018-09-14T00:30:13.013Z,2.30
2018-09-14T00:32:40.887Z,2.30
2018-09-14T00:35:08.752Z,2.83
2018-09-14T00:37:36.637Z,2.60
2018-09-14T00:40:04.814Z,2.30
2018-09-14T00:42:32.896Z,2.57
2018-09-14T00:45:00.774Z,2.37
2018-09-14T00:47:28.661Z,2.30
2018-09-14T00:49:56.572Z,2.40
2018-09-14T00:52:24.753Z,2.33
2018-09-14T00:54:52.752Z,2.40
2018-09-14T00:57:20.901Z,2.30
2018-09-14T00:59:48.948Z,2.17
2018-09-14T01:02:17.037Z,2.40
2018-09-14T01:04:44.914Z,2.20
2018-09-14T01:07:12.808Z,2.07
2018-09-14T01:09:40.928Z,2.20
2018-09-14T01:12:08.829Z,2.10
2018-09-14T01:14:36.706Z,2.83
2018-09-14T01:17:04.657Z,2.10
2018-09-14T01:19:32.613Z,2.13
2018-09-14T01:22:00.489Z,2.20
2018-09-14T01:24:28.376Z,2.20
2018-09-14T01:26:56.256Z,2.53
2018-09-14T01:29:24.164Z,2.20
2018-09-14T01:31:52.068Z,2.30
2018-09-14T01:34:19.962Z,2.57
2018-09-14T01:36:47.844Z,2.37
2018-09-14T01:39:15.961Z,2.10
2018-09-14T01:41:44.014Z,2.40
2018-09-14T01:44:12.097Z,2.13
2018-09-14T01:46:39.981Z,2.40
2018-09-14T01:49:08.193Z,2.10
2018-09-14T01:51:36.553Z,2.30
2018-09-14T01:54:04.818Z,1.93
2018-09-14T01:56:32.805Z,2.37
2018-09-14T01:59:00.726Z,2.43
2018-09-14T02:01:28.892Z,2.30
2018-09-14T02:03:56.901Z,2.40
2018-09-14T02:06:25.981Z,2.70
2018-09-14T02:08:54.068Z,2.30
2018-09-14T02:11:22.093Z,2.10
2018-09-14T02:13:49.989Z,2.17
2018-09-14T02:16:17.901Z,2.07
2018-09-14T02:18:46.009Z,2.40
2018-09-14T02:21:13.881Z,2.00
2018-09-14T02:23:41.854Z,2.37
2018-09-14T02:26:09.911Z,2.27
2018-09-14T02:28:37.838Z,2.13
2018-09-14T02:31:05.745Z,2.00
2018-09-14T02:33:33.755Z,2.27
2018-09-14T02:36:01.885Z,2.20
2018-09-14T03:00:31.344Z,1.97
2018-09-14T03:02:59.309Z,2.00
2018-09-14T03:05:27.213Z,1.93
2018-09-14T03:07:55.090Z,2.20
2018-09-14T03:10:23.221Z,2.03
2018-09-14T03:12:51.290Z,2.30
2018-09-14T03:15:19.173Z,2.10
2018-09-14T03:17:47.049Z,1.87
2018-09-14T03:20:14.937Z,1.87
2018-09-14T03:22:42.819Z,1.90
2018-09-14T03:25:10.733Z,1.80
2018-09-14T03:27:38.610Z,1.73
2018-09-14T03:30:06.527Z,2.00
2018-09-14T03:32:34.617Z,2.10
2018-09-14T03:35:02.707Z,1.87
2018-09-14T03:37:30.766Z,2.20
2018-09-14T03:39:58.654Z,2.00
2018-09-14T03:42:26.613Z,1.93
2018-09-14T03:44:54.689Z,2.20
2018-09-14T03:47:22.746Z,2.10
2018-09-14T03:49:50.629Z,1.80
2018-09-14T03:52:18.578Z,1.90
2018-09-14T03:54:46.665Z,2.23
2018-09-14T03:57:14.779Z,2.37
2018-09-14T03:59:42.614Z,2.20
2018-09-14T04:02:10.557Z,2.00
2018-09-14T04:04:38.637Z,2.30
2018-09-14T04:07:06.717Z,2.17
2018-09-14T04:09:34.612Z,2.03
2018-09-14T04:12:02.485Z,2.50
2018-09-14T04:14:30.373Z,1.97
2018-09-14T04:16:58.256Z,2.37
2018-09-14T04:19:26.150Z,2.50
2018-09-14T04:21:54.200Z,2.33
2018-09-14T04:24:22.093Z,2.30
2018-09-14T04:26:49.980Z,2.40
2018-09-14T04:29:17.899Z,2.23
2018-09-14T04:31:45.765Z,1.90
2018-09-14T04:34:13.953Z,2.20
2018-09-14T04:36:41.845Z,2.30
2018-09-14T04:39:10.661Z,2.00
2018-09-14T04:41:38.822Z,2.13
2018-09-14T04:44:06.847Z,2.03
2018-09-14T04:46:34.928Z,2.03
2018-09-14T04:49:02.910Z,2.60
2018-09-14T04:51:30.826Z,2.63
2018-09-14T04:53:58.825Z,2.30
2018-09-14T04:56:26.716Z,2.17
2018-09-14T04:58:54.598Z,2.47
2018-09-14T05:01:22.742Z,2.10
2018-09-14T05:03:50.638Z,2.30
2018-09-14T05:06:18.577Z,2.27
2018-09-14T05:08:46.641Z,2.13
2018-09-14T05:11:14.724Z,2.23
2018-09-14T05:13:42.785Z,1.93
2018-09-14T05:16:10.689Z,2.10
2018-09-14T05:18:38.561Z,1.90
2018-09-14T05:21:06.565Z,2.10
2018-09-14T05:23:34.449Z,2.20
2018-09-14T05:26:02.354Z,2.13
2018-09-14T05:28:30.289Z,1.97
2018-09-14T05:30:58.193Z,2.00
2018-09-14T05:33:26.073Z,1.87
2018-09-14T05:35:53.965Z,1.90
2018-09-14T05:38:21.855Z,2.10
2018-09-14T05:40:50.041Z,2.60
2018-09-14T05:43:18.042Z,5.00
2018-09-14T05:45:46.250Z,6.90
2018-09-14T05:48:14.249Z,10.23
2018-09-14T05:50:42.136Z,8.50
2018-09-14T05:53:10.026Z,8.80
2018-09-14T05:55:38.120Z,10.07
2018-09-14T05:58:06.033Z,10.53
2018-09-14T06:00:33.909Z,10.13
2018-09-14T06:03:02.075Z,13.53
2018-09-14T06:05:30.134Z,7.83
2018-09-14T06:07:58.213Z,7.77
2018-09-14T06:10:26.091Z,7.97
2018-09-14T06:12:54.050Z,6.87
2018-09-14T06:15:22.215Z,6.63
2018-09-14T06:17:50.179Z,6.67
2018-09-14T06:20:18.257Z,10.37
2018-09-14T06:22:46.165Z,14.47
2018-09-14T06:25:14.090Z,8.87
2018-09-14T06:27:42.177Z,10.07
2018-09-14T06:30:10.081Z,10.20
2018-09-14T06:32:38.088Z,10.13
2018-09-14T06:35:06.563Z,10.33
2018-09-14T06:37:34.457Z,10.97
2018-09-14T06:40:02.517Z,10.70
2018-09-14T06:42:30.584Z,11.13
2018-09-14T06:44:58.702Z,18.53
2018-09-14T06:47:27.678Z,69.43
2018-09-14T06:50:08.279Z,61.40
2018-09-14T06:52:37.884Z,80.37
2018-09-14T06:55:05.997Z,93.37
2018-09-14T06:57:34.004Z,105.33
2018-09-14T07:00:01.993Z,129.77
2018-09-14T07:02:29.801Z,121.30
2018-09-14T07:04:58.313Z,111.37
2018-09-14T07:07:26.503Z,84.13
2018-09-14T07:09:54.434Z,98.80
2018-09-14T07:12:22.335Z,89.70
2018-09-14T07:14:50.286Z,84.90
2018-09-14T07:17:18.190Z,85.63
2018-09-14T07:19:46.094Z,84.63
2018-09-14T07:22:14.244Z,79.80
2018-09-14T07:24:42.356Z,94.37
2018-09-14T07:27:10.361Z,68.50
2018-09-14T07:29:38.388Z,67.43
2018-09-14T07:32:06.495Z,73.60
2018-09-14T07:34:34.377Z,69.13
2018-09-14T07:37:02.297Z,61.07
2018-09-14T07:39:30.354Z,54.43
2018-09-14T07:41:58.373Z,53.77
2018-09-14T07:44:26.269Z,51.97
2018-09-14T07:46:54.264Z,54.93
2018-09-14T07:49:22.349Z,67.77
2018-09-14T07:51:50.389Z,97.50
2018-09-14T07:54:18.277Z,89.33
2018-09-14T07:56:46.241Z,138.67
2018-09-14T07:59:14.333Z,132.17
2018-09-14T08:01:42.338Z,287.13
2018-09-14T08:04:10.239Z,152.30
2018-09-14T08:06:38.172Z,506.43
2018-09-14T08:09:08.142Z,289.17
2018-09-14T08:11:36.152Z,219.97
2018-09-14T08:14:04.117Z,216.07
2018-09-14T08:16:32.037Z,197.90
2018-09-14T08:19:00.066Z,178.77
2018-09-14T08:21:28.102Z,159.97
2018-09-14T08:23:55.962Z,172.27
2018-09-14T08:26:23.845Z,134.00
2018-09-14T08:28:51.793Z,155.13
2018-09-14T08:31:19.858Z,132.03
2018-09-14T08:33:47.750Z,132.03
2018-09-14T08:36:15.682Z,128.67
2018-09-14T08:38:43.770Z,121.87
2018-09-14T08:41:11.658Z,115.07
2018-09-14T08:43:39.561Z,109.53
2018-09-14T08:46:07.602Z,117.60
2018-09-14T08:48:35.745Z,106.87
2018-09-14T08:51:03.805Z,104.73
2018-09-14T08:53:31.720Z,109.10
2018-09-14T08:55:59.641Z,168.43
2018-09-14T08:58:28.044Z,133.23
2018-09-14T09:00:56.119Z,152.83
2018-09-14T09:03:23.942Z,184.57
2018-09-14T09:05:51.926Z,262.37
2018-09-14T09:08:19.825Z,246.93
2018-09-14T09:10:48.677Z,293.50
2018-09-14T09:13:16.765Z,195.40
2018-09-14T09:15:44.769Z,172.10
2018-09-14T09:18:12.909Z,158.53
2018-09-14T09:20:40.794Z,192.37
2018-09-14T09:23:08.695Z,172.93
2018-09-14T09:25:36.577Z,147.27
2018-09-14T09:28:04.477Z,103.70
2018-09-14T09:30:32.487Z,126.77
2018-09-14T09:33:00.403Z,114.30
2018-09-14T09:35:28.472Z,141.07
2018-09-14T09:37:56.542Z,205.73
2018-09-14T09:40:24.637Z,187.53
2018-09-14T09:42:52.522Z,191.40
2018-09-14T09:45:20.464Z,157.50
2018-09-14T09:47:48.517Z,150.37
2018-09-14T09:50:16.606Z,135.37
2018-09-14T09:52:44.501Z,125.20
2018-09-14T09:55:12.438Z,105.10
2018-09-14T09:57:40.489Z,48.47
2018-09-14T10:00:12.910Z,60.83
2018-09-14T10:02:45.137Z,62.97
2018-09-14T10:05:18.769Z,59.87
2018-09-14T10:07:46.873Z,50.73
2018-09-14T10:10:15.969Z,51.97
2018-09-14T10:12:43.989Z,50.40
2018-09-14T10:15:12.657Z,41.97
2018-09-14T10:17:40.662Z,44.67
2018-09-14T10:20:08.813Z,38.77
2018-09-14T10:22:36.679Z,42.23
2018-09-14T10:25:04.631Z,40.17
2018-09-14T10:27:32.488Z,38.30
2018-09-14T10:30:00.497Z,32.07
2018-09-14T10:32:28.385Z,30.30
2018-09-14T10:34:56.358Z,28.93
2018-09-14T10:37:24.368Z,27.40
2018-09-14T10:39:52.253Z,32.93
2018-09-14T10:42:20.120Z,38.80
2018-09-14T10:44:48.277Z,44.53
2018-09-14T10:47:16.169Z,44.53
2018-09-14T10:49:44.055Z,50.40
2018-09-14T10:52:11.957Z,42.90
2018-09-14T10:54:40.941Z,47.17
2018-09-14T10:57:08.854Z,54.93
2018-09-14T10:59:37.757Z,77.60
2018-09-14T11:02:07.201Z,101.20
2018-09-14T11:04:36.908Z,127.67
2018-09-14T11:07:08.751Z,112.87
2018-09-14T11:09:36.938Z,96.43
2018-09-14T11:12:04.941Z,95.87
2018-09-14T11:14:32.801Z,86.70
2018-09-14T11:17:00.797Z,83.30
2018-09-14T11:19:28.686Z,58.37
2018-09-14T11:21:56.621Z,58.63
2018-09-14T11:24:24.744Z,48.93
2018-09-14T11:26:52.585Z,42.73
2018-09-14T11:29:20.485Z,28.67
2018-09-14T11:31:48.382Z,24.93
2018-09-14T11:34:16.354Z,24.53
2018-09-14T11:36:44.254Z,22.73
2018-09-14T11:39:12.139Z,18.50
2018-09-14T11:41:40.029Z,16.37
2018-09-14T11:44:07.931Z,15.60
2018-09-14T11:46:36.118Z,11.33
2018-09-14T11:51:37.473Z,13.30
2018-09-14T11:54:13.231Z,15.07
2018-09-14T11:56:41.297Z,31.07
2018-09-14T11:59:09.353Z,58.97
2018-09-14T12:01:37.437Z,43.23
2018-09-14T12:04:05.323Z,53.60
2018-09-14T12:06:33.274Z,41.90
2018-09-14T12:09:01.157Z,37.27
2018-09-14T12:11:29.060Z,32.40
2018-09-14T12:13:57.127Z,24.70
2018-09-14T12:16:24.966Z,23.00
2018-09-14T12:18:52.853Z,16.00
2018-09-14T12:21:20.769Z,12.47
2018-09-14T12:23:48.836Z,18.73
2018-09-14T12:26:16.921Z,25.07
2018-09-14T12:28:44.801Z,22.97
2018-09-14T12:31:12.720Z,70.60
2018-09-14T12:33:41.245Z,61.10
2018-09-14T12:36:09.203Z,59.93
2018-09-14T12:38:37.084Z,59.20
2018-09-14T12:41:04.977Z,51.43
2018-09-14T12:43:32.876Z,48.33
2018-09-14T12:46:00.798Z,40.13
2018-09-14T12:48:28.674Z,27.83
2018-09-14T12:50:56.701Z,28.83
2018-09-14T12:53:24.777Z,26.07
2018-09-14T12:55:52.685Z,63.70
2018-09-14T12:58:20.601Z,59.30
2018-09-14T13:00:48.494Z,68.23
2018-09-14T13:03:16.393Z,50.20
2018-09-14T13:05:44.284Z,49.43
2018-09-14T13:08:12.282Z,46.50
2018-09-14T13:10:40.173Z,35.50
2018-09-14T13:13:08.117Z,34.23
2018-09-14T13:15:35.997Z,27.97
2018-09-14T13:18:03.898Z,22.07
2018-09-14T13:20:31.781Z,22.93
2018-09-14T13:22:59.680Z,16.80
2018-09-14T13:25:27.578Z,16.47
2018-09-14T13:27:55.632Z,18.00
2018-09-14T13:30:23.534Z,14.97
2018-09-14T13:32:53.559Z,24.33
2018-09-14T13:35:23.233Z,32.93
2018-09-14T13:37:51.845Z,37.00
2018-09-14T13:40:20.004Z,39.87
2018-09-14T13:42:49.774Z,31.53
2018-09-14T13:45:17.876Z,26.13
2018-09-14T13:47:46.184Z,21.73
2018-09-14T13:50:14.081Z,23.90
2018-09-14T13:52:41.962Z,20.10
2018-09-14T13:55:09.916Z,12.83
2018-09-14T13:57:37.925Z,13.90
2018-09-14T14:00:05.816Z,12.97
2018-09-14T14:02:33.921Z,11.33
2018-09-14T14:05:02.116Z,10.83
2018-09-14T14:07:30.513Z,13.83
2018-09-14T14:09:58.589Z,12.03
2018-09-14T14:12:26.489Z,10.80
2018-09-14T14:14:54.374Z,8.93
2018-09-14T14:17:22.658Z,9.93
2018-09-14T14:19:50.617Z,9.00
2018-09-14T14:22:18.630Z,9.23
2018-09-14T14:24:46.525Z,10.93
2018-09-14T14:27:14.425Z,11.40
2018-09-14T14:29:42.330Z,11.33
2018-09-14T14:32:10.309Z,9.63
2018-09-14T14:34:38.257Z,11.37
2018-09-14T14:37:06.213Z,10.57
2018-09-14T14:39:34.301Z,9.77
2018-09-14T14:42:02.203Z,8.07
2018-09-14T14:44:30.107Z,8.97
2018-09-14T14:46:58.164Z,12.37
2018-09-14T14:49:26.242Z,10.70
2018-09-14T14:51:54.122Z,11.53
2018-09-14T14:54:22.093Z,10.67
2018-09-14T14:56:49.974Z,12.43
2018-09-14T14:59:17.869Z,10.83
2018-09-14T15:01:46.139Z,13.27
2018-09-14T15:04:14.026Z,10.70
2018-09-14T15:06:41.914Z,10.17
2018-09-14T15:09:10.449Z,18.30
2018-09-14T15:11:38.830Z,15.53
2018-09-14T15:14:06.729Z,10.57
2018-09-14T15:16:34.721Z,14.07
2018-09-14T15:19:02.656Z,14.40
2018-09-14T15:21:30.550Z,9.67
2018-09-14T15:23:58.641Z,10.57
2018-09-14T15:26:26.697Z,10.47
2018-09-14T15:28:54.592Z,13.27
2018-09-14T15:31:22.485Z,8.30
2018-09-14T15:33:50.613Z,7.90
2018-09-14T15:36:18.613Z,6.70
2018-09-14T15:38:46.497Z,7.73
2018-09-14T15:41:14.385Z,9.47
2018-09-14T15:43:42.348Z,8.70
2018-09-14T15:46:10.162Z,9.37
2018-09-14T15:48:38.053Z,7.37
2018-09-14T15:51:05.929Z,9.73
2018-09-14T15:53:33.832Z,8.67
2018-09-14T15:56:01.705Z,13.93
2018-09-14T15:58:29.832Z,15.67
2018-09-14T16:00:57.845Z,16.40
2018-09-14T16:03:25.933Z,11.07
2018-09-14T16:05:53.825Z,13.00
2018-09-14T16:08:21.762Z,10.20
2018-09-14T16:10:49.817Z,8.80
2018-09-14T16:13:17.717Z,8.00
2018-09-14T16:15:45.640Z,9.53
2018-09-14T16:18:13.739Z,8.63
2018-09-14T16:20:41.625Z,8.87
2018-09-14T16:23:09.581Z,9.53
2018-09-14T16:25:37.479Z,9.83
2018-09-14T16:28:05.613Z,8.90
2018-09-14T16:30:33.521Z,9.60
2018-09-14T16:33:01.533Z,8.73
2018-09-14T16:35:29.541Z,9.13
2018-09-14T16:37:57.681Z,7.53
2018-09-14T16:40:25.674Z,8.83
2018-09-14T16:42:53.549Z,8.07
2018-09-14T16:45:21.597Z,8.27
2018-09-14T16:47:49.658Z,7.87
2018-09-14T16:50:17.556Z,7.53
2018-09-14T16:52:45.498Z,7.70
2018-09-14T16:55:13.609Z,7.87
2018-09-14T16:57:41.641Z,7.60
2018-09-14T17:00:09.652Z,7.93
2018-09-14T17:02:37.528Z,7.40
2018-09-14T17:05:05.562Z,7.73
2018-09-14T17:07:33.613Z,8.13
2018-09-14T17:10:01.702Z,7.13
2018-09-14T17:12:29.587Z,6.87
2018-09-14T17:14:57.537Z,7.43
2018-09-14T17:17:25.585Z,7.40
2018-09-14T17:19:53.477Z,6.77
2018-09-14T17:22:21.425Z,6.80
2018-09-14T17:24:49.314Z,6.93
2018-09-14T17:27:17.268Z,6.50
2018-09-14T17:29:45.344Z,6.40
2018-09-14T17:32:13.406Z,6.87
2018-09-14T17:34:41.489Z,6.13
2018-09-14T17:37:09.481Z,6.53
2018-09-14T17:39:37.633Z,6.10
2018-09-14T17:42:05.509Z,6.63
2018-09-14T17:44:33.481Z,6.70
2018-09-14T17:47:01.355Z,6.73
2018-09-14T17:49:29.287Z,6.10
2018-09-14T17:51:57.284Z,6.33
2018-09-14T17:54:25.166Z,6.47
2018-09-14T17:56:53.170Z,6.27
2018-09-14T17:59:21.050Z,6.13
2018-09-14T18:01:48.941Z,5.50
2018-09-14T18:04:16.818Z,6.10
2018-09-14T18:06:44.876Z,5.67
2018-09-14T18:09:12.866Z,6.77
2018-09-14T18:11:41.026Z,6.10
2018-09-14T18:14:09.055Z,5.97
2018-09-14T18:16:36.943Z,5.20
2018-09-14T18:19:04.845Z,6.10
2018-09-14T18:21:32.737Z,6.13
2018-09-14T18:24:00.729Z,6.07
2018-09-14T18:26:28.841Z,6.00
2018-09-14T18:28:56.721Z,5.23
2018-09-14T18:31:24.627Z,6.67
2018-09-14T18:33:52.770Z,5.80
2018-09-14T18:36:20.801Z,6.70
2018-09-14T18:38:48.693Z,5.30
2018-09-14T18:41:16.632Z,5.40
2018-09-14T18:43:44.521Z,5.30
2018-09-14T18:46:12.493Z,5.70
2018-09-14T18:48:40.387Z,5.90
2018-09-14T18:51:08.282Z,5.27
2018-09-14T18:53:36.173Z,5.20
2018-09-14T18:56:04.050Z,4.97
2018-09-14T18:58:32.236Z,5.10
2018-09-14T19:01:00.290Z,5.37
2018-09-14T19:03:28.177Z,5.17
2018-09-14T19:05:56.129Z,4.90
2018-09-14T19:08:24.206Z,5.13
2018-09-14T19:10:52.281Z,5.83
2018-09-14T19:13:20.370Z,5.20
2018-09-14T19:15:48.409Z,5.07
2018-09-14T19:18:16.497Z,5.37
2018-09-14T19:20:44.557Z,5.30
2018-09-14T19:23:12.633Z,4.87
2018-09-14T19:25:40.510Z,5.13
2018-09-14T19:28:08.469Z,4.87
2018-09-14T19:30:36.524Z,4.90
2018-09-14T19:33:04.610Z,6.20
2018-09-14T19:35:32.489Z,4.67
2018-09-14T19:38:00.445Z,5.17
2018-09-14T19:40:28.501Z,4.70
2018-09-14T19:42:56.515Z,4.73
2018-09-14T19:45:24.390Z,4.67
2018-09-14T19:47:52.421Z,4.87
2018-09-14T19:50:20.352Z,5.13
2018-09-14T19:52:48.261Z,4.70
2018-09-14T19:55:16.321Z,4.83
2018-09-14T19:57:44.421Z,4.90
2018-09-14T20:00:12.481Z,4.77
2018-09-14T20:02:40.369Z,4.20
2018-09-14T20:05:08.292Z,4.33
2018-09-14T20:07:36.185Z,4.40
2018-09-14T20:10:04.125Z,4.20
2018-09-14T20:12:32.223Z,5.20
2018-09-14T20:15:00.111Z,4.37
2018-09-14T20:17:28.087Z,4.77
2018-09-14T20:19:56.122Z,4.93
2018-09-14T20:22:24.189Z,4.70
2018-09-14T20:24:52.270Z,4.70
2018-09-14T20:27:20.145Z,4.73
2018-09-14T20:29:48.049Z,4.90
2018-09-14T20:32:16.161Z,4.70
2018-09-14T20:34:44.049Z,4.60
2018-09-14T20:37:12.030Z,4.37
2018-09-14T20:39:39.893Z,4.43
2018-09-14T20:42:07.775Z,4.43
2018-09-14T20:44:35.917Z,4.27
2018-09-14T20:47:03.977Z,4.10
2018-09-14T20:49:31.865Z,4.77
2018-09-14T20:51:59.745Z,4.93
2018-09-14T20:54:27.641Z,4.63
2018-09-14T20:56:55.513Z,4.33
2018-09-14T20:59:23.426Z,4.10
2018-09-14T21:01:51.306Z,4.40
2018-09-14T21:04:19.231Z,4.10
2018-09-14T21:06:47.084Z,4.30
2018-09-14T21:09:15.090Z,4.13
2018-09-14T21:11:43.157Z,4.03
2018-09-14T21:14:11.237Z,4.53
2018-09-14T21:16:39.289Z,4.53
2018-09-14T21:19:07.173Z,4.10
2018-09-14T21:21:35.050Z,4.50
2018-09-14T21:24:03.220Z,4.43
2018-09-14T21:26:31.273Z,4.63
2018-09-14T21:28:59.172Z,4.83
2018-09-14T21:31:27.056Z,3.90
2018-09-14T21:33:55.193Z,3.73
2018-09-14T21:36:23.073Z,4.37
2018-09-14T21:38:51.025Z,4.07
2018-09-14T21:41:18.901Z,4.73
2018-09-14T21:43:47.171Z,3.90
2018-09-14T21:46:15.078Z,3.97
2018-09-14T21:48:42.977Z,4.27
2018-09-14T21:51:10.850Z,3.90
2018-09-14T21:53:38.883Z,4.20
2018-09-14T21:56:06.734Z,4.47
2018-09-14T21:58:34.613Z,3.93
2018-09-14T22:01:05.562Z,4.20
2018-09-14T22:03:33.590Z,4.10
2018-09-14T22:06:01.652Z,4.00
2018-09-14T22:08:29.704Z,4.30
2018-09-14T22:10:57.605Z,3.90
2018-09-14T22:13:25.549Z,4.10
2018-09-14T22:15:53.442Z,4.13
2018-09-14T22:18:21.394Z,3.80
2018-09-14T22:20:49.467Z,3.90
2018-09-14T22:23:17.345Z,4.13
2018-09-14T22:25:45.237Z,3.73
2018-09-14T22:28:13.110Z,3.87
2018-09-14T22:30:41.137Z,3.77
2018-09-14T22:33:09.188Z,3.83
2018-09-14T22:35:37.281Z,3.90
2018-09-14T22:38:05.153Z,3.90
2018-09-14T22:40:33.044Z,3.40
2018-09-14T22:43:00.926Z,4.00
2018-09-14T22:45:28.846Z,4.17
2018-09-14T22:47:56.721Z,3.97
2018-09-14T22:50:24.784Z,3.80
2018-09-14T22:52:52.773Z,3.43
2018-09-14T22:55:20.670Z,3.70
2018-09-14T22:57:48.680Z,3.50
2018-09-14T23:00:21.997Z,3.63
2018-09-14T23:02:50.056Z,3.50
2018-09-14T23:05:18.131Z,3.47
2018-09-14T23:07:46.182Z,3.70
2018-09-14T23:10:14.264Z,3.50
2018-09-14T23:12:42.141Z,3.80
2018-09-14T23:15:10.101Z,3.47
2018-09-14T23:17:38.161Z,3.73
2018-09-14T23:20:06.173Z,3.80
2018-09-14T23:22:34.046Z,3.53
2018-09-14T23:25:02.080Z,3.60
2018-09-14T23:27:29.977Z,3.37
2018-09-14T23:29:57.920Z,3.73
2018-09-14T23:32:25.981Z,3.30
2018-09-14T23:34:53.870Z,3.40
2018-09-14T23:37:21.741Z,3.43
2018-09-14T23:39:49.893Z,3.43
2018-09-14T23:42:17.897Z,3.83
2018-09-14T23:44:46.045Z,3.60
2018-09-14T23:47:14.049Z,3.37
2018-09-14T23:49:41.948Z,3.50
2018-09-14T23:52:09.946Z,3.27
2018-09-14T23:54:37.941Z,3.57
2018-09-14T23:57:06.073Z,3.60
2018-09-14T23:59:34.173Z,3.90
